Skanee, Michigan
Current Conditions -  °F | °C
As of 3:53 PM on Tuesday 21 Oct 2014 (Local Time) from KCMX Reporting Station
Clear Clear  
Wind Chill: 44°   Ceiling: Unl
Heat Index: 46°   Visibility: 10mi
Dew Point: 31°   Wind: 5mph
Humidity: 56%   Direction: NA
Pressure: 30.25"   Gusts: NA
Location:  46.87°N, 88.21°W
Report Text: KCMX 211953Z AUTO VRB04KT 10SM CLR 08/M01 A3025 RMK AO2 SLP254 T00781006
Loading
Personal Weather Stations






























Interactive Weather Map
Tropical Storm Tracking
New forecast layout! Learn more

10-Day Weather Forecast

Advertisements
Track Severe Weather on mobile